Gibraltar Airport

Airport
ICAO code: 
LXGB
IATA Code: 
GIB
Summary
ICAO Region: 
EUR
Territory: 
Location: 
Gibraltar, Gibraltar
Serving: 
Gibraltar
Elevation: 
10 ft
Coordinates: 
Aerial View: 
36° 9' 3.583" N, 5° 20' 54.021" W
Airport RE: 
Crosswind Landings
Airport WX: 
Low Level Turbulence
Metar
Observation
LXGB 170250Z AUTO 08021KT 9999 FEW023/// BKN042/// 14/09 Q1029
Station
Gibraltar
Date/Time
2022-01-17 02:50:00
Wind direction
80°
Wind speed
21 kts
Lowest cloud amount
few clouds
Temperature
14°C
Dew point
9°C
Humidity
71%
QNH
1029 hPa
Weather condition
n/a

International airport serving the British Overseas Territory of Gibraltar.

Climatology

Dry-summer subtropical ”Mediterranean" climate (Köppen climate classification Csa) - characterized by hot, dry summers and mild winters. During the summer, subtropical high pressure cells dominate, making rainfall unlikely except for the occasional thunderstorm. In the winter, periodic storms bring rain.

Runways

Designator Length Width Surface Rops
9/27 1829 46 ASP Yes/Yes
Airport map: 
Aerial View: 

SKYbrary Partners:

Safety knowledge contributed by: